sensor_id;sensor_type;location;lat;lon;timestamp;P1;durP1;ratioP1;P2;durP2;ratioP2
71763;SDS011;59602;52.142;5.408;2023-03-21T00:00:40;11.07;;;5.97;;
71763;SDS011;59602;52.142;5.408;2023-03-21T00:03:08;10.60;;;5.53;;
71763;SDS011;59602;52.142;5.408;2023-03-21T00:05:38;11.23;;;5.80;;
71763;SDS011;59602;52.142;5.408;2023-03-21T00:08:09;10.73;;;6.15;;
71763;SDS011;59602;52.142;5.408;2023-03-21T00:10:36;10.57;;;6.03;;
71763;SDS011;59602;52.142;5.408;2023-03-21T00:13:10;9.80;;;6.13;;
71763;SDS011;59602;52.142;5.408;2023-03-21T00:15:39;9.63;;;5.53;;
71763;SDS011;59602;52.142;5.408;2023-03-21T00:18:35;9.93;;;6.03;;
71763;SDS011;59602;52.142;5.408;2023-03-21T00:21:07;11.45;;;6.22;;
71763;SDS011;59602;52.142;5.408;2023-03-21T00:23:57;12.52;;;6.10;;
71763;SDS011;59602;52.142;5.408;2023-03-21T00:26:26;9.87;;;6.23;;
71763;SDS011;59602;52.142;5.408;2023-03-21T00:28:52;10.00;;;6.35;;
71763;SDS011;59602;52.142;5.408;2023-03-21T00:31:19;11.00;;;6.35;;
71763;SDS011;59602;52.142;5.408;2023-03-21T00:33:46;11.68;;;6.40;;
71763;SDS011;59602;52.142;5.408;2023-03-21T00:36:13;10.75;;;6.28;;
71763;SDS011;59602;52.142;5.408;2023-03-21T00:38:41;9.33;;;5.73;;
71763;SDS011;59602;52.142;5.408;2023-03-21T00:41:09;9.43;;;5.88;;
71763;SDS011;59602;52.142;5.408;2023-03-21T00:43:48;10.32;;;4.93;;
71763;SDS011;59602;52.142;5.408;2023-03-21T00:46:17;8.27;;;5.22;;
71763;SDS011;59602;52.142;5.408;2023-03-21T00:48:44;9.30;;;5.60;;
71763;SDS011;59602;52.142;5.408;2023-03-21T00:51:13;9.93;;;5.13;;
71763;SDS011;59602;52.142;5.408;2023-03-21T00:53:47;10.30;;;5.13;;
71763;SDS011;59602;52.142;5.408;2023-03-21T00:56:13;7.97;;;4.93;;
71763;SDS011;59602;52.142;5.408;2023-03-21T00:58:40;9.43;;;5.32;;
71763;SDS011;59602;52.142;5.408;2023-03-21T01:01:07;8.70;;;5.35;;
71763;SDS011;59602;52.142;5.408;2023-03-21T01:03:37;10.03;;;5.60;;
71763;SDS011;59602;52.142;5.408;2023-03-21T01:06:16;10.05;;;5.32;;
71763;SDS011;59602;52.142;5.408;2023-03-21T01:08:45;10.45;;;5.50;;
71763;SDS011;59602;52.142;5.408;2023-03-21T01:11:18;10.52;;;5.88;;
71763;SDS011;59602;52.142;5.408;2023-03-21T01:13:48;8.95;;;5.30;;
71763;SDS011;59602;52.142;5.408;2023-03-21T01:16:36;9.50;;;5.70;;
71763;SDS011;59602;52.142;5.408;2023-03-21T01:19:13;8.52;;;5.63;;
71763;SDS011;59602;52.142;5.408;2023-03-21T01:21:53;10.68;;;6.05;;
71763;SDS011;59602;52.142;5.408;2023-03-21T01:24:20;11.00;;;6.47;;
71763;SDS011;59602;52.142;5.408;2023-03-21T01:26:47;12.25;;;6.80;;
71763;SDS011;59602;52.142;5.408;2023-03-21T01:29:14;10.30;;;6.30;;
71763;SDS011;59602;52.142;5.408;2023-03-21T01:31:43;13.02;;;7.32;;
71763;SDS011;59602;52.142;5.408;2023-03-21T01:34:11;11.90;;;7.20;;
71763;SDS011;59602;52.142;5.408;2023-03-21T01:36:37;13.13;;;8.10;;
71763;SDS011;59602;52.142;5.408;2023-03-21T01:39:04;14.45;;;7.80;;
71763;SDS011;59602;52.142;5.408;2023-03-21T01:41:33;14.37;;;7.53;;
71763;SDS011;59602;52.142;5.408;2023-03-21T01:44:13;13.75;;;7.63;;
71763;SDS011;59602;52.142;5.408;2023-03-21T01:46:43;14.70;;;8.40;;
71763;SDS011;59602;52.142;5.408;2023-03-21T01:49:30;13.65;;;7.57;;
71763;SDS011;59602;52.142;5.408;2023-03-21T01:52:04;13.00;;;7.47;;
71763;SDS011;59602;52.142;5.408;2023-03-21T01:54:42;15.37;;;7.53;;
71763;SDS011;59602;52.142;5.408;2023-03-21T01:57:13;14.13;;;8.07;;
71763;SDS011;59602;52.142;5.408;2023-03-21T01:59:45;15.35;;;8.90;;
71763;SDS011;59602;52.142;5.408;2023-03-21T02:02:18;14.35;;;7.97;;
71763;SDS011;59602;52.142;5.408;2023-03-21T02:04:51;13.50;;;7.85;;
71763;SDS011;59602;52.142;5.408;2023-03-21T02:07:26;16.90;;;8.83;;
71763;SDS011;59602;52.142;5.408;2023-03-21T02:09:54;17.27;;;9.27;;
71763;SDS011;59602;52.142;5.408;2023-03-21T02:12:23;15.55;;;9.57;;
71763;SDS011;59602;52.142;5.408;2023-03-21T02:14:51;17.00;;;8.80;;
71763;SDS011;59602;52.142;5.408;2023-03-21T02:22:41;18.27;;;9.40;;
71763;SDS011;59602;52.142;5.408;2023-03-21T02:27:57;16.67;;;8.85;;
71763;SDS011;59602;52.142;5.408;2023-03-21T02:33:32;18.73;;;9.50;;
71763;SDS011;59602;52.142;5.408;2023-03-21T02:38:40;16.52;;;8.90;;
71763;SDS011;59602;52.142;5.408;2023-03-21T02:41:15;17.33;;;9.50;;
71763;SDS011;59602;52.142;5.408;2023-03-21T02:44:05;19.88;;;9.65;;
71763;SDS011;59602;52.142;5.408;2023-03-21T02:46:44;17.47;;;8.93;;
71763;SDS011;59602;52.142;5.408;2023-03-21T02:49:33;19.30;;;9.65;;
71763;SDS011;59602;52.142;5.408;2023-03-21T02:52:08;20.45;;;10.60;;
71763;SDS011;59602;52.142;5.408;2023-03-21T02:54:53;21.20;;;9.88;;
71763;SDS011;59602;52.142;5.408;2023-03-21T02:57:22;18.50;;;9.77;;
71763;SDS011;59602;52.142;5.408;2023-03-21T02:59:54;20.67;;;10.07;;
71763;SDS011;59602;52.142;5.408;2023-03-21T03:02:27;21.25;;;10.30;;
71763;SDS011;59602;52.142;5.408;2023-03-21T03:04:56;20.65;;;10.00;;
71763;SDS011;59602;52.142;5.408;2023-03-21T03:07:36;20.27;;;10.13;;
71763;SDS011;59602;52.142;5.408;2023-03-21T03:21:19;18.90;;;8.00;;
71763;SDS011;59602;52.142;5.408;2023-03-21T03:24:00;20.10;;;8.63;;
71763;SDS011;59602;52.142;5.408;2023-03-21T03:26:42;17.23;;;8.17;;
71763;SDS011;59602;52.142;5.408;2023-03-21T03:29:16;15.57;;;8.05;;
71763;SDS011;59602;52.142;5.408;2023-03-21T03:31:47;15.82;;;8.20;;
71763;SDS011;59602;52.142;5.408;2023-03-21T03:34:20;14.98;;;7.90;;
71763;SDS011;59602;52.142;5.408;2023-03-21T03:36:53;14.73;;;7.47;;
71763;SDS011;59602;52.142;5.408;2023-03-21T03:39:24;13.97;;;7.67;;
71763;SDS011;59602;52.142;5.408;2023-03-21T03:42:00;15.70;;;7.70;;
71763;SDS011;59602;52.142;5.408;2023-03-21T03:44:46;14.60;;;7.38;;
71763;SDS011;59602;52.142;5.408;2023-03-21T03:47:23;16.85;;;7.13;;
71763;SDS011;59602;52.142;5.408;2023-03-21T03:50:06;14.30;;;7.38;;
71763;SDS011;59602;52.142;5.408;2023-03-21T03:52:36;15.83;;;7.13;;
71763;SDS011;59602;52.142;5.408;2023-03-21T03:55:21;14.68;;;7.28;;
71763;SDS011;59602;52.142;5.408;2023-03-21T03:57:52;16.08;;;7.50;;
71763;SDS011;59602;52.142;5.408;2023-03-21T04:00:20;17.02;;;8.00;;
71763;SDS011;59602;52.142;5.408;2023-03-21T04:02:46;15.60;;;7.55;;
71763;SDS011;59602;52.142;5.408;2023-03-21T04:05:13;15.53;;;7.50;;
71763;SDS011;59602;52.142;5.408;2023-03-21T04:07:40;16.45;;;7.78;;
71763;SDS011;59602;52.142;5.408;2023-03-21T04:10:07;17.63;;;8.63;;
71763;SDS011;59602;52.142;5.408;2023-03-21T04:12:34;16.55;;;8.60;;
71763;SDS011;59602;52.142;5.408;2023-03-21T04:15:01;18.13;;;7.93;;
71763;SDS011;59602;52.142;5.408;2023-03-21T04:17:36;16.73;;;7.87;;
71763;SDS011;59602;52.142;5.408;2023-03-21T04:20:05;16.50;;;8.70;;
71763;SDS011;59602;52.142;5.408;2023-03-21T04:22:41;18.08;;;8.00;;
71763;SDS011;59602;52.142;5.408;2023-03-21T04:25:08;16.58;;;8.15;;
71763;SDS011;59602;52.142;5.408;2023-03-21T04:27:35;18.63;;;8.15;;
71763;SDS011;59602;52.142;5.408;2023-03-21T04:30:02;18.43;;;8.27;;
71763;SDS011;59602;52.142;5.408;2023-03-21T04:32:31;16.20;;;8.57;;
71763;SDS011;59602;52.142;5.408;2023-03-21T04:35:00;18.58;;;9.00;;
71763;SDS011;59602;52.142;5.408;2023-03-21T04:37:27;26.10;;;9.60;;
71763;SDS011;59602;52.142;5.408;2023-03-21T04:39:54;18.27;;;9.05;;
71763;SDS011;59602;52.142;5.408;2023-03-21T04:42:20;19.07;;;9.30;;
71763;SDS011;59602;52.142;5.408;2023-03-21T04:44:47;19.45;;;8.93;;
71763;SDS011;59602;52.142;5.408;2023-03-21T04:47:15;18.65;;;9.68;;
71763;SDS011;59602;52.142;5.408;2023-03-21T04:49:42;19.73;;;9.40;;
71763;SDS011;59602;52.142;5.408;2023-03-21T04:52:09;17.15;;;9.27;;
71763;SDS011;59602;52.142;5.408;2023-03-21T04:54:35;20.97;;;9.90;;
71763;SDS011;59602;52.142;5.408;2023-03-21T04:57:02;19.98;;;10.63;;
71763;SDS011;59602;52.142;5.408;2023-03-21T04:59:30;22.20;;;10.60;;
71763;SDS011;59602;52.142;5.408;2023-03-21T05:01:56;20.88;;;9.57;;
71763;SDS011;59602;52.142;5.408;2023-03-21T05:04:24;21.30;;;9.98;;
71763;SDS011;59602;52.142;5.408;2023-03-21T05:06:52;21.17;;;9.60;;
71763;SDS011;59602;52.142;5.408;2023-03-21T05:09:19;23.60;;;10.30;;
71763;SDS011;59602;52.142;5.408;2023-03-21T05:11:47;20.98;;;9.52;;
71763;SDS011;59602;52.142;5.408;2023-03-21T05:14:15;17.05;;;8.75;;
71763;SDS011;59602;52.142;5.408;2023-03-21T05:16:45;17.83;;;8.25;;
71763;SDS011;59602;52.142;5.408;2023-03-21T05:19:19;19.50;;;9.27;;
71763;SDS011;59602;52.142;5.408;2023-03-21T05:21:48;17.10;;;8.32;;
71763;SDS011;59602;52.142;5.408;2023-03-21T05:24:16;19.00;;;7.82;;
71763;SDS011;59602;52.142;5.408;2023-03-21T05:26:45;18.92;;;7.78;;
71763;SDS011;59602;52.142;5.408;2023-03-21T05:29:16;21.15;;;7.63;;
71763;SDS011;59602;52.142;5.408;2023-03-21T05:31:44;17.20;;;7.43;;
71763;SDS011;59602;52.142;5.408;2023-03-21T05:34:11;16.25;;;7.00;;
71763;SDS011;59602;52.142;5.408;2023-03-21T05:36:41;14.50;;;6.68;;
71763;SDS011;59602;52.142;5.408;2023-03-21T05:39:07;14.90;;;6.85;;
71763;SDS011;59602;52.142;5.408;2023-03-21T05:41:34;16.80;;;7.38;;
71763;SDS011;59602;52.142;5.408;2023-03-21T05:44:02;16.67;;;6.97;;
71763;SDS011;59602;52.142;5.408;2023-03-21T05:46:28;13.68;;;6.32;;
71763;SDS011;59602;52.142;5.408;2023-03-21T05:48:55;17.45;;;6.57;;
71763;SDS011;59602;52.142;5.408;2023-03-21T05:51:22;13.95;;;6.60;;
71763;SDS011;59602;52.142;5.408;2023-03-21T05:53:48;19.23;;;7.00;;
71763;SDS011;59602;52.142;5.408;2023-03-21T05:56:15;15.13;;;6.77;;
71763;SDS011;59602;52.142;5.408;2023-03-21T05:58:41;14.60;;;6.57;;
71763;SDS011;59602;52.142;5.408;2023-03-21T06:01:08;15.07;;;6.20;;
71763;SDS011;59602;52.142;5.408;2023-03-21T06:03:35;13.45;;;5.25;;
71763;SDS011;59602;52.142;5.408;2023-03-21T06:06:02;15.55;;;6.25;;
71763;SDS011;59602;52.142;5.408;2023-03-21T06:08:29;13.40;;;5.93;;
71763;SDS011;59602;52.142;5.408;2023-03-21T06:10:56;13.63;;;6.10;;
71763;SDS011;59602;52.142;5.408;2023-03-21T06:13:23;13.98;;;6.00;;
71763;SDS011;59602;52.142;5.408;2023-03-21T06:15:50;16.00;;;6.20;;
71763;SDS011;59602;52.142;5.408;2023-03-21T06:18:16;15.15;;;6.53;;
71763;SDS011;59602;52.142;5.408;2023-03-21T06:20:43;12.37;;;5.73;;
71763;SDS011;59602;52.142;5.408;2023-03-21T06:23:09;13.73;;;5.88;;
71763;SDS011;59602;52.142;5.408;2023-03-21T06:25:36;14.88;;;5.95;;
71763;SDS011;59602;52.142;5.408;2023-03-21T06:28:04;14.10;;;5.57;;
71763;SDS011;59602;52.142;5.408;2023-03-21T06:30:31;14.65;;;6.00;;
71763;SDS011;59602;52.142;5.408;2023-03-21T06:32:57;14.77;;;6.10;;
71763;SDS011;59602;52.142;5.408;2023-03-21T06:35:24;14.38;;;5.55;;
71763;SDS011;59602;52.142;5.408;2023-03-21T06:37:51;16.17;;;6.03;;
71763;SDS011;59602;52.142;5.408;2023-03-21T06:40:19;12.98;;;5.75;;
71763;SDS011;59602;52.142;5.408;2023-03-21T06:42:46;16.33;;;6.20;;
71763;SDS011;59602;52.142;5.408;2023-03-21T06:45:13;12.73;;;5.67;;
71763;SDS011;59602;52.142;5.408;2023-03-21T06:47:39;12.70;;;5.40;;
71763;SDS011;59602;52.142;5.408;2023-03-21T06:50:06;13.23;;;5.53;;
71763;SDS011;59602;52.142;5.408;2023-03-21T06:52:33;16.35;;;5.47;;
71763;SDS011;59602;52.142;5.408;2023-03-21T06:55:00;12.75;;;5.07;;
71763;SDS011;59602;52.142;5.408;2023-03-21T06:57:26;13.10;;;5.70;;
71763;SDS011;59602;52.142;5.408;2023-03-21T06:59:53;16.02;;;6.35;;
71763;SDS011;59602;52.142;5.408;2023-03-21T07:02:20;14.82;;;5.25;;
71763;SDS011;59602;52.142;5.408;2023-03-21T07:04:46;13.43;;;5.65;;
71763;SDS011;59602;52.142;5.408;2023-03-21T07:07:13;13.35;;;5.22;;
71763;SDS011;59602;52.142;5.408;2023-03-21T07:09:40;14.13;;;5.57;;
71763;SDS011;59602;52.142;5.408;2023-03-21T07:12:07;13.82;;;5.95;;
71763;SDS011;59602;52.142;5.408;2023-03-21T07:14:37;14.27;;;6.10;;
71763;SDS011;59602;52.142;5.408;2023-03-21T07:17:26;11.55;;;4.95;;
71763;SDS011;59602;52.142;5.408;2023-03-21T07:19:53;12.98;;;5.68;;
71763;SDS011;59602;52.142;5.408;2023-03-21T07:22:20;15.80;;;5.50;;
71763;SDS011;59602;52.142;5.408;2023-03-21T07:24:52;12.95;;;5.03;;
71763;SDS011;59602;52.142;5.408;2023-03-21T07:27:30;15.82;;;5.10;;
71763;SDS011;59602;52.142;5.408;2023-03-21T07:29:57;13.77;;;5.28;;
71763;SDS011;59602;52.142;5.408;2023-03-21T07:32:25;12.13;;;5.22;;
71763;SDS011;59602;52.142;5.408;2023-03-21T07:34:55;13.97;;;5.40;;
71763;SDS011;59602;52.142;5.408;2023-03-21T07:37:21;10.07;;;4.43;;
71763;SDS011;59602;52.142;5.408;2023-03-21T07:39:49;13.02;;;4.90;;
71763;SDS011;59602;52.142;5.408;2023-03-21T07:42:16;13.48;;;5.03;;
71763;SDS011;59602;52.142;5.408;2023-03-21T07:44:43;9.90;;;4.40;;
71763;SDS011;59602;52.142;5.408;2023-03-21T07:47:10;10.27;;;4.67;;
71763;SDS011;59602;52.142;5.408;2023-03-21T07:49:36;10.27;;;4.70;;
71763;SDS011;59602;52.142;5.408;2023-03-21T07:52:03;12.57;;;4.93;;
71763;SDS011;59602;52.142;5.408;2023-03-21T07:54:31;13.90;;;4.90;;
71763;SDS011;59602;52.142;5.408;2023-03-21T07:56:58;10.27;;;4.25;;
71763;SDS011;59602;52.142;5.408;2023-03-21T07:59:25;13.03;;;4.17;;
71763;SDS011;59602;52.142;5.408;2023-03-21T08:01:52;12.70;;;4.32;;
71763;SDS011;59602;52.142;5.408;2023-03-21T08:04:18;11.10;;;4.13;;
71763;SDS011;59602;52.142;5.408;2023-03-21T08:06:45;13.40;;;4.68;;
71763;SDS011;59602;52.142;5.408;2023-03-21T08:09:12;10.45;;;4.55;;
71763;SDS011;59602;52.142;5.408;2023-03-21T08:11:38;12.57;;;4.73;;
71763;SDS011;59602;52.142;5.408;2023-03-21T08:14:06;13.07;;;4.28;;
71763;SDS011;59602;52.142;5.408;2023-03-21T08:16:33;11.93;;;4.38;;
71763;SDS011;59602;52.142;5.408;2023-03-21T08:19:00;11.63;;;4.43;;
71763;SDS011;59602;52.142;5.408;2023-03-21T08:21:26;10.00;;;4.78;;
71763;SDS011;59602;52.142;5.408;2023-03-21T08:23:53;13.07;;;4.17;;
71763;SDS011;59602;52.142;5.408;2023-03-21T08:26:19;10.07;;;3.95;;
71763;SDS011;59602;52.142;5.408;2023-03-21T08:28:47;10.63;;;4.40;;
71763;SDS011;59602;52.142;5.408;2023-03-21T08:31:14;9.30;;;4.22;;
71763;SDS011;59602;52.142;5.408;2023-03-21T08:33:41;11.00;;;4.15;;
71763;SDS011;59602;52.142;5.408;2023-03-21T08:36:07;13.17;;;5.00;;
71763;SDS011;59602;52.142;5.408;2023-03-21T08:38:36;9.95;;;4.40;;
71763;SDS011;59602;52.142;5.408;2023-03-21T08:41:03;10.23;;;4.50;;
71763;SDS011;59602;52.142;5.408;2023-03-21T08:43:31;9.32;;;4.10;;
71763;SDS011;59602;52.142;5.408;2023-03-21T08:45:58;10.48;;;4.13;;
71763;SDS011;59602;52.142;5.408;2023-03-21T08:48:24;12.10;;;4.10;;
71763;SDS011;59602;52.142;5.408;2023-03-21T08:50:51;11.45;;;4.25;;
71763;SDS011;59602;52.142;5.408;2023-03-21T08:53:18;12.23;;;4.25;;
71763;SDS011;59602;52.142;5.408;2023-03-21T08:55:44;9.63;;;3.47;;
71763;SDS011;59602;52.142;5.408;2023-03-21T08:58:11;13.23;;;3.80;;
71763;SDS011;59602;52.142;5.408;2023-03-21T09:00:38;9.00;;;4.10;;
71763;SDS011;59602;52.142;5.408;2023-03-21T09:03:05;9.90;;;3.20;;
71763;SDS011;59602;52.142;5.408;2023-03-21T09:05:31;10.35;;;3.85;;
71763;SDS011;59602;52.142;5.408;2023-03-21T09:07:58;9.70;;;3.50;;
71763;SDS011;59602;52.142;5.408;2023-03-21T09:10:26;10.68;;;3.25;;
71763;SDS011;59602;52.142;5.408;2023-03-21T09:12:53;8.53;;;3.10;;
71763;SDS011;59602;52.142;5.408;2023-03-21T09:15:21;9.10;;;3.22;;
71763;SDS011;59602;52.142;5.408;2023-03-21T09:17:52;11.63;;;3.70;;
71763;SDS011;59602;52.142;5.408;2023-03-21T09:20:20;9.05;;;3.45;;
71763;SDS011;59602;52.142;5.408;2023-03-21T09:22:51;9.70;;;3.33;;
71763;SDS011;59602;52.142;5.408;2023-03-21T09:25:18;7.47;;;3.27;;
71763;SDS011;59602;52.142;5.408;2023-03-21T09:27:46;9.10;;;3.20;;
71763;SDS011;59602;52.142;5.408;2023-03-21T09:30:13;10.35;;;3.00;;
71763;SDS011;59602;52.142;5.408;2023-03-21T09:32:43;8.70;;;2.80;;
71763;SDS011;59602;52.142;5.408;2023-03-21T09:35:17;10.18;;;3.28;;
71763;SDS011;59602;52.142;5.408;2023-03-21T09:37:45;8.60;;;2.93;;
71763;SDS011;59602;52.142;5.408;2023-03-21T09:43:02;8.15;;;3.00;;
71763;SDS011;59602;52.142;5.408;2023-03-21T09:45:44;8.60;;;3.00;;
71763;SDS011;59602;52.142;5.408;2023-03-21T09:48:21;8.07;;;3.22;;
71763;SDS011;59602;52.142;5.408;2023-03-21T09:51:21;8.20;;;3.13;;
71763;SDS011;59602;52.142;5.408;2023-03-21T09:53:51;10.38;;;3.90;;
71763;SDS011;59602;52.142;5.408;2023-03-21T09:56:22;7.03;;;3.47;;
71763;SDS011;59602;52.142;5.408;2023-03-21T09:58:52;8.73;;;2.80;;
71763;SDS011;59602;52.142;5.408;2023-03-21T10:01:24;10.13;;;3.47;;
71763;SDS011;59602;52.142;5.408;2023-03-21T10:03:55;8.03;;;3.13;;
71763;SDS011;59602;52.142;5.408;2023-03-21T10:06:26;8.15;;;3.40;;
71763;SDS011;59602;52.142;5.408;2023-03-21T10:08:57;8.95;;;3.80;;
71763;SDS011;59602;52.142;5.408;2023-03-21T10:11:37;7.85;;;3.40;;
71763;SDS011;59602;52.142;5.408;2023-03-21T10:16:40;9.50;;;3.53;;
71763;SDS011;59602;52.142;5.408;2023-03-21T10:19:11;8.70;;;3.60;;
71763;SDS011;59602;52.142;5.408;2023-03-21T10:21:41;8.13;;;3.70;;
71763;SDS011;59602;52.142;5.408;2023-03-21T10:24:30;11.05;;;4.30;;
71763;SDS011;59602;52.142;5.408;2023-03-21T10:26:58;6.20;;;3.35;;
71763;SDS011;59602;52.142;5.408;2023-03-21T10:29:28;9.13;;;3.97;;
71763;SDS011;59602;52.142;5.408;2023-03-21T10:32:02;10.38;;;3.92;;
71763;SDS011;59602;52.142;5.408;2023-03-21T10:34:30;7.70;;;4.13;;
71763;SDS011;59602;52.142;5.408;2023-03-21T10:37:01;10.88;;;3.85;;
71763;SDS011;59602;52.142;5.408;2023-03-21T10:39:31;9.73;;;3.60;;
71763;SDS011;59602;52.142;5.408;2023-03-21T10:42:01;8.13;;;3.40;;
71763;SDS011;59602;52.142;5.408;2023-03-21T10:44:29;12.20;;;3.35;;
71763;SDS011;59602;52.142;5.408;2023-03-21T10:46:58;8.43;;;3.42;;
71763;SDS011;59602;52.142;5.408;2023-03-21T10:49:31;9.07;;;3.47;;
71763;SDS011;59602;52.142;5.408;2023-03-21T10:52:07;8.13;;;3.28;;
71763;SDS011;59602;52.142;5.408;2023-03-21T10:54:36;8.57;;;3.17;;
71763;SDS011;59602;52.142;5.408;2023-03-21T10:59:34;6.53;;;3.10;;
71763;SDS011;59602;52.142;5.408;2023-03-21T11:02:04;7.47;;;3.42;;
71763;SDS011;59602;52.142;5.408;2023-03-21T11:04:32;9.18;;;2.97;;
71763;SDS011;59602;52.142;5.408;2023-03-21T11:07:01;7.63;;;3.50;;
71763;SDS011;59602;52.142;5.408;2023-03-21T11:09:46;8.82;;;3.17;;
71763;SDS011;59602;52.142;5.408;2023-03-21T11:15:13;7.10;;;3.50;;
71763;SDS011;59602;52.142;5.408;2023-03-21T11:17:40;8.35;;;3.08;;
71763;SDS011;59602;52.142;5.408;2023-03-21T11:20:07;13.87;;;3.57;;
71763;SDS011;59602;52.142;5.408;2023-03-21T11:22:36;9.93;;;3.60;;
71763;SDS011;59602;52.142;5.408;2023-03-21T11:25:07;10.27;;;2.95;;
71763;SDS011;59602;52.142;5.408;2023-03-21T11:27:46;6.90;;;2.85;;
71763;SDS011;59602;52.142;5.408;2023-03-21T11:30:20;10.60;;;3.08;;
71763;SDS011;59602;52.142;5.408;2023-03-21T11:32:50;7.20;;;3.17;;
71763;SDS011;59602;52.142;5.408;2023-03-21T11:35:22;9.35;;;3.00;;
71763;SDS011;59602;52.142;5.408;2023-03-21T11:37:55;8.40;;;3.47;;
71763;SDS011;59602;52.142;5.408;2023-03-21T11:40:24;7.88;;;2.83;;
71763;SDS011;59602;52.142;5.408;2023-03-21T11:43:02;7.95;;;3.10;;
71763;SDS011;59602;52.142;5.408;2023-03-21T11:45:56;7.17;;;2.70;;
71763;SDS011;59602;52.142;5.408;2023-03-21T11:48:26;8.52;;;3.15;;
71763;SDS011;59602;52.142;5.408;2023-03-21T11:50:57;7.50;;;3.30;;
71763;SDS011;59602;52.142;5.408;2023-03-21T11:56:21;7.30;;;2.70;;
71763;SDS011;59602;52.142;5.408;2023-03-21T12:01:49;7.35;;;2.90;;
71763;SDS011;59602;52.142;5.408;2023-03-21T12:04:19;8.50;;;3.40;;
71763;SDS011;59602;52.142;5.408;2023-03-21T12:06:53;7.70;;;3.13;;
71763;SDS011;59602;52.142;5.408;2023-03-21T12:09:36;9.70;;;2.85;;
71763;SDS011;59602;52.142;5.408;2023-03-21T12:17:39;12.15;;;3.08;;
71763;SDS011;59602;52.142;5.408;2023-03-21T12:20:28;9.52;;;3.00;;
71763;SDS011;59602;52.142;5.408;2023-03-21T12:23:14;7.20;;;3.20;;
71763;SDS011;59602;52.142;5.408;2023-03-21T12:28:41;6.88;;;3.15;;
71763;SDS011;59602;52.142;5.408;2023-03-21T12:36:32;8.68;;;3.42;;
71763;SDS011;59602;52.142;5.408;2023-03-21T12:44:36;7.05;;;3.58;;
71763;SDS011;59602;52.142;5.408;2023-03-21T12:47:09;6.32;;;3.40;;
71763;SDS011;59602;52.142;5.408;2023-03-21T12:49:53;10.25;;;3.83;;
71763;SDS011;59602;52.142;5.408;2023-03-21T12:52:42;7.40;;;3.40;;
71763;SDS011;59602;52.142;5.408;2023-03-21T12:55:13;6.88;;;3.67;;
71763;SDS011;59602;52.142;5.408;2023-03-21T12:57:54;9.25;;;4.75;;
71763;SDS011;59602;52.142;5.408;2023-03-21T13:03:10;9.25;;;4.55;;
71763;SDS011;59602;52.142;5.408;2023-03-21T13:05:57;8.43;;;4.40;;
71763;SDS011;59602;52.142;5.408;2023-03-21T13:11:31;9.70;;;4.40;;
71763;SDS011;59602;52.142;5.408;2023-03-21T13:14:03;10.13;;;4.47;;
71763;SDS011;59602;52.142;5.408;2023-03-21T13:19:35;6.83;;;4.43;;
71763;SDS011;59602;52.142;5.408;2023-03-21T13:22:20;9.32;;;5.20;;
71763;SDS011;59602;52.142;5.408;2023-03-21T13:24:59;9.77;;;4.68;;
71763;SDS011;59602;52.142;5.408;2023-03-21T13:27:33;7.78;;;4.22;;
71763;SDS011;59602;52.142;5.408;2023-03-21T13:32:45;6.33;;;3.60;;
71763;SDS011;59602;52.142;5.408;2023-03-21T13:35:20;7.32;;;3.92;;
71763;SDS011;59602;52.142;5.408;2023-03-21T13:37:55;9.65;;;4.20;;
71763;SDS011;59602;52.142;5.408;2023-03-21T13:40:25;7.88;;;4.05;;
71763;SDS011;59602;52.142;5.408;2023-03-21T13:43:00;7.80;;;4.45;;
71763;SDS011;59602;52.142;5.408;2023-03-21T13:45:52;8.50;;;4.10;;
71763;SDS011;59602;52.142;5.408;2023-03-21T13:48:31;8.05;;;4.18;;
71763;SDS011;59602;52.142;5.408;2023-03-21T13:53:58;7.50;;;4.55;;
71763;SDS011;59602;52.142;5.408;2023-03-21T13:59:34;6.00;;;3.90;;
71763;SDS011;59602;52.142;5.408;2023-03-21T14:05:03;9.70;;;4.60;;
71763;SDS011;59602;52.142;5.408;2023-03-21T14:07:40;7.40;;;4.18;;
71763;SDS011;59602;52.142;5.408;2023-03-21T14:10:17;6.20;;;3.50;;
71763;SDS011;59602;52.142;5.408;2023-03-21T14:13:15;10.67;;;4.03;;
71763;SDS011;59602;52.142;5.408;2023-03-21T14:15:47;9.15;;;4.22;;
71763;SDS011;59602;52.142;5.408;2023-03-21T14:18:56;8.55;;;4.03;;
71763;SDS011;59602;52.142;5.408;2023-03-21T14:21:35;8.48;;;4.10;;
71763;SDS011;59602;52.142;5.408;2023-03-21T14:24:25;6.90;;;4.10;;
71763;SDS011;59602;52.142;5.408;2023-03-21T14:26:54;9.53;;;4.33;;
71763;SDS011;59602;52.142;5.408;2023-03-21T14:29:32;11.40;;;4.40;;
71763;SDS011;59602;52.142;5.408;2023-03-21T14:32:22;8.38;;;4.43;;
71763;SDS011;59602;52.142;5.408;2023-03-21T14:35:16;8.07;;;4.32;;
71763;SDS011;59602;52.142;5.408;2023-03-21T14:37:44;7.40;;;4.10;;
71763;SDS011;59602;52.142;5.408;2023-03-21T14:40:37;8.23;;;4.20;;
71763;SDS011;59602;52.142;5.408;2023-03-21T14:46:42;7.80;;;4.60;;
71763;SDS011;59602;52.142;5.408;2023-03-21T14:49:32;12.20;;;4.10;;
71763;SDS011;59602;52.142;5.408;2023-03-21T14:52:03;9.00;;;4.30;;
71763;SDS011;59602;52.142;5.408;2023-03-21T14:54:44;7.70;;;4.20;;
71763;SDS011;59602;52.142;5.408;2023-03-21T14:57:19;9.00;;;4.10;;
71763;SDS011;59602;52.142;5.408;2023-03-21T14:59:49;18.92;;;4.80;;
71763;SDS011;59602;52.142;5.408;2023-03-21T15:02:36;10.40;;;4.68;;
71763;SDS011;59602;52.142;5.408;2023-03-21T15:05:35;9.65;;;4.20;;
71763;SDS011;59602;52.142;5.408;2023-03-21T15:08:14;10.13;;;4.20;;
71763;SDS011;59602;52.142;5.408;2023-03-21T15:11:31;9.35;;;3.92;;
71763;SDS011;59602;52.142;5.408;2023-03-21T15:14:02;7.35;;;4.50;;
71763;SDS011;59602;52.142;5.408;2023-03-21T15:16:52;9.90;;;4.75;;
71763;SDS011;59602;52.142;5.408;2023-03-21T15:22:32;7.33;;;4.67;;
71763;SDS011;59602;52.142;5.408;2023-03-21T15:25:46;8.40;;;4.47;;
71763;SDS011;59602;52.142;5.408;2023-03-21T15:28:58;8.73;;;4.50;;
71763;SDS011;59602;52.142;5.408;2023-03-21T15:31:52;8.68;;;4.22;;
71763;SDS011;59602;52.142;5.408;2023-03-21T15:34:36;9.23;;;5.03;;
71763;SDS011;59602;52.142;5.408;2023-03-21T15:37:16;8.73;;;4.97;;
71763;SDS011;59602;52.142;5.408;2023-03-21T15:43:12;9.30;;;5.00;;
71763;SDS011;59602;52.142;5.408;2023-03-21T15:46:15;8.00;;;4.90;;
71763;SDS011;59602;52.142;5.408;2023-03-21T15:49:07;8.70;;;4.90;;
71763;SDS011;59602;52.142;5.408;2023-03-21T15:52:12;7.73;;;4.43;;
71763;SDS011;59602;52.142;5.408;2023-03-21T15:54:59;8.35;;;4.60;;
71763;SDS011;59602;52.142;5.408;2023-03-21T15:57:43;10.85;;;4.85;;
71763;SDS011;59602;52.142;5.408;2023-03-21T16:00:48;7.78;;;4.40;;
71763;SDS011;59602;52.142;5.408;2023-03-21T16:03:23;7.20;;;4.38;;
71763;SDS011;59602;52.142;5.408;2023-03-21T16:08:50;9.30;;;4.88;;
71763;SDS011;59602;52.142;5.408;2023-03-21T16:11:51;11.77;;;4.97;;
71763;SDS011;59602;52.142;5.408;2023-03-21T16:14:40;7.63;;;4.85;;
71763;SDS011;59602;52.142;5.408;2023-03-21T16:17:30;8.93;;;4.57;;
71763;SDS011;59602;52.142;5.408;2023-03-21T16:20:18;6.13;;;3.83;;
71763;SDS011;59602;52.142;5.408;2023-03-21T16:22:50;9.20;;;4.50;;
71763;SDS011;59602;52.142;5.408;2023-03-21T16:25:31;7.30;;;4.60;;
71763;SDS011;59602;52.142;5.408;2023-03-21T16:28:27;11.27;;;5.25;;
71763;SDS011;59602;52.142;5.408;2023-03-21T16:31:28;10.88;;;5.40;;
71763;SDS011;59602;52.142;5.408;2023-03-21T16:34:01;9.50;;;4.80;;
71763;SDS011;59602;52.142;5.408;2023-03-21T16:36:53;10.45;;;5.35;;
71763;SDS011;59602;52.142;5.408;2023-03-21T16:39:33;11.18;;;4.88;;
71763;SDS011;59602;52.142;5.408;2023-03-21T16:42:03;11.20;;;5.63;;
71763;SDS011;59602;52.142;5.408;2023-03-21T16:44:31;9.85;;;4.95;;
71763;SDS011;59602;52.142;5.408;2023-03-21T16:47:02;10.27;;;4.83;;